sensor_id;sensor_type;location;lat;lon;timestamp;pressure;altitude;pressure_sealevel;temperature;humidity
23619;BME280;18207;32.078;34.818;2023-04-10T00:00:12;100223.13;;;29.47;34.78
23619;BME280;18207;32.078;34.818;2023-04-10T00:02:42;100225.97;;;29.47;34.64
23619;BME280;18207;32.078;34.818;2023-04-10T00:05:12;100236.09;;;29.48;34.81
23619;BME280;18207;32.078;34.818;2023-04-10T00:07:43;100241.75;;;29.48;34.67
23619;BME280;18207;32.078;34.818;2023-04-10T00:10:13;100242.53;;;29.48;34.10
23619;BME280;18207;32.078;34.818;2023-04-10T00:12:45;100232.84;;;29.49;34.47
23619;BME280;18207;32.078;34.818;2023-04-10T00:15:16;100227.16;;;29.49;34.68
23619;BME280;18207;32.078;34.818;2023-04-10T00:17:46;100221.50;;;29.49;34.31
23619;BME280;18207;32.078;34.818;2023-04-10T00:20:22;100220.28;;;29.50;34.35
23619;BME280;18207;32.078;34.818;2023-04-10T00:22:53;100195.63;;;29.51;34.29
23619;BME280;18207;32.078;34.818;2023-04-10T00:25:23;100171.75;;;29.52;34.44
23619;BME280;18207;32.078;34.818;2023-04-10T00:27:55;100168.94;;;29.52;34.52
23619;BME280;18207;32.078;34.818;2023-04-10T00:30:25;100174.59;;;29.52;33.99
23619;BME280;18207;32.078;34.818;2023-04-10T00:32:55;100176.19;;;29.52;34.22
23619;BME280;18207;32.078;34.818;2023-04-10T00:35:26;100169.28;;;29.53;34.23
23619;BME280;18207;32.078;34.818;2023-04-10T00:37:56;100168.09;;;29.54;34.11
23619;BME280;18207;32.078;34.818;2023-04-10T00:40:26;100175.38;;;29.55;34.09
23619;BME280;18207;32.078;34.818;2023-04-10T00:42:59;100155.13;;;29.57;34.07
23619;BME280;18207;32.078;34.818;2023-04-10T00:45:30;100149.44;;;29.57;33.99
23619;BME280;18207;32.078;34.818;2023-04-10T00:48:00;100153.09;;;29.57;33.91
23619;BME280;18207;32.078;34.818;2023-04-10T00:50:32;100156.72;;;29.58;34.35
23619;BME280;18207;32.078;34.818;2023-04-10T00:53:03;100165.22;;;29.58;34.32
23619;BME280;18207;32.078;34.818;2023-04-10T00:55:33;100181.00;;;29.59;33.92
23619;BME280;18207;32.078;34.818;2023-04-10T00:58:06;100178.19;;;29.59;33.74
23619;BME280;18207;32.078;34.818;2023-04-10T01:00:35;100176.16;;;29.59;33.95
23619;BME280;18207;32.078;34.818;2023-04-10T01:03:06;100164.00;;;29.59;33.68
23619;BME280;18207;32.078;34.818;2023-04-10T01:05:46;100141.75;;;29.61;33.87
23619;BME280;18207;32.078;34.818;2023-04-10T01:08:35;100143.81;;;29.60;33.91
23619;BME280;18207;32.078;34.818;2023-04-10T01:11:17;100148.63;;;29.60;33.92
23619;BME280;18207;32.078;34.818;2023-04-10T01:14:02;100166.84;;;29.59;33.89
23619;BME280;18207;32.078;34.818;2023-04-10T01:16:43;100149.84;;;29.59;33.78
23619;BME280;18207;32.078;34.818;2023-04-10T01:19:33;100130.44;;;29.57;33.59
23619;BME280;18207;32.078;34.818;2023-04-10T01:22:09;100151.50;;;29.56;33.96
23619;BME280;18207;32.078;34.818;2023-04-10T01:25:00;100160.00;;;29.56;33.41
23619;BME280;18207;32.078;34.818;2023-04-10T01:27:49;100171.75;;;29.55;33.69
23619;BME280;18207;32.078;34.818;2023-04-10T01:30:26;100177.41;;;29.55;33.65
23619;BME280;18207;32.078;34.818;2023-04-10T01:33:01;100173.75;;;29.54;33.51
23619;BME280;18207;32.078;34.818;2023-04-10T01:35:32;100169.69;;;29.55;33.40
23619;BME280;18207;32.078;34.818;2023-04-10T01:38:05;100156.38;;;29.56;33.58
23619;BME280;18207;32.078;34.818;2023-04-10T01:40:40;100141.78;;;29.57;33.81
23619;BME280;18207;32.078;34.818;2023-04-10T01:43:18;100124.78;;;29.57;33.59
23619;BME280;18207;32.078;34.818;2023-04-10T01:45:52;100129.63;;;29.57;33.26
23619;BME280;18207;32.078;34.818;2023-04-10T01:48:24;100157.56;;;29.58;33.51
23619;BME280;18207;32.078;34.818;2023-04-10T01:50:55;100157.56;;;29.58;33.60
23619;BME280;18207;32.078;34.818;2023-04-10T01:53:27;100131.66;;;29.60;33.32
23619;BME280;18207;32.078;34.818;2023-04-10T01:55:59;100087.53;;;29.59;33.50
23619;BME280;18207;32.078;34.818;2023-04-10T01:58:30;100069.31;;;29.60;33.24
23619;BME280;18207;32.078;34.818;2023-04-10T02:01:02;100056.38;;;29.59;33.22
23619;BME280;18207;32.078;34.818;2023-04-10T02:03:34;100060.44;;;29.58;33.32
23619;BME280;18207;32.078;34.818;2023-04-10T02:06:14;100046.28;;;29.58;33.12
23619;BME280;18207;32.078;34.818;2023-04-10T02:09:06;100024.03;;;29.56;33.02
23619;BME280;18207;32.078;34.818;2023-04-10T02:11:46;100024.03;;;29.56;33.30
23619;BME280;18207;32.078;34.818;2023-04-10T02:14:21;100011.91;;;29.56;33.42
23619;BME280;18207;32.078;34.818;2023-04-10T02:16:58;100004.63;;;29.55;33.15
23619;BME280;18207;32.078;34.818;2023-04-10T02:19:31;100002.19;;;29.53;33.01
23619;BME280;18207;32.078;34.818;2023-04-10T02:22:04;99983.19;;;29.54;33.08
23619;BME280;18207;32.078;34.818;2023-04-10T02:24:35;99956.88;;;29.53;33.23
23619;BME280;18207;32.078;34.818;2023-04-10T02:27:05;99946.38;;;29.54;32.84
23619;BME280;18207;32.078;34.818;2023-04-10T02:29:35;99952.03;;;29.54;32.68
23619;BME280;18207;32.078;34.818;2023-04-10T02:32:08;99959.31;;;29.55;32.93
23619;BME280;18207;32.078;34.818;2023-04-10T02:34:38;99958.09;;;29.56;33.08
23619;BME280;18207;32.078;34.818;2023-04-10T02:37:11;99951.19;;;29.57;32.93
23619;BME280;18207;32.078;34.818;2023-04-10T02:39:41;99964.13;;;29.58;33.00
23619;BME280;18207;32.078;34.818;2023-04-10T02:42:11;99963.75;;;29.59;33.04
23619;BME280;18207;32.078;34.818;2023-04-10T02:44:41;99951.19;;;29.60;33.13
23619;BME280;18207;32.078;34.818;2023-04-10T02:47:13;99953.59;;;29.62;33.02
23619;BME280;18207;32.078;34.818;2023-04-10T02:49:43;99956.44;;;29.62;32.90
23619;BME280;18207;32.078;34.818;2023-04-10T02:52:15;99960.06;;;29.62;32.63
23619;BME280;18207;32.078;34.818;2023-04-10T02:54:45;99964.50;;;29.63;32.88
23619;BME280;18207;32.078;34.818;2023-04-10T02:57:15;99960.44;;;29.64;32.89
23619;BME280;18207;32.078;34.818;2023-04-10T02:59:49;99964.09;;;29.65;33.00
23619;BME280;18207;32.078;34.818;2023-04-10T03:02:22;99974.63;;;29.64;32.62
23619;BME280;18207;32.078;34.818;2023-04-10T03:04:53;99968.94;;;29.64;32.64
23619;BME280;18207;32.078;34.818;2023-04-10T03:07:23;99972.59;;;29.65;32.76
23619;BME280;18207;32.078;34.818;2023-04-10T03:09:54;99971.78;;;29.64;32.80
23619;BME280;18207;32.078;34.818;2023-04-10T03:12:23;99967.72;;;29.65;32.85
23619;BME280;18207;32.078;34.818;2023-04-10T03:14:54;99969.78;;;29.65;32.97
23619;BME280;18207;32.078;34.818;2023-04-10T03:17:26;99961.28;;;29.65;32.93
23619;BME280;18207;32.078;34.818;2023-04-10T03:19:56;99951.94;;;29.64;32.64
23619;BME280;18207;32.078;34.818;2023-04-10T03:22:26;99958.44;;;29.65;32.83
23619;BME280;18207;32.078;34.818;2023-04-10T03:24:59;99953.16;;;29.63;32.51
23619;BME280;18207;32.078;34.818;2023-04-10T03:27:29;99951.56;;;29.62;32.83
23619;BME280;18207;32.078;34.818;2023-04-10T03:30:01;99952.78;;;29.61;32.93
23619;BME280;18207;32.078;34.818;2023-04-10T03:32:33;99954.81;;;29.61;32.68
23619;BME280;18207;32.078;34.818;2023-04-10T03:35:04;99963.75;;;29.59;32.56
23619;BME280;18207;32.078;34.818;2023-04-10T03:37:34;99952.00;;;29.57;32.58
23619;BME280;18207;32.078;34.818;2023-04-10T03:40:07;99954.03;;;29.57;32.50
23619;BME280;18207;32.078;34.818;2023-04-10T03:42:37;99958.09;;;29.56;32.74
23619;BME280;18207;32.078;34.818;2023-04-10T03:45:08;99950.81;;;29.55;32.78
23619;BME280;18207;32.078;34.818;2023-04-10T03:47:41;99954.88;;;29.54;32.43
23619;BME280;18207;32.078;34.818;2023-04-10T03:50:11;99971.03;;;29.53;32.76
23619;BME280;18207;32.078;34.818;2023-04-10T03:52:40;99959.34;;;29.52;32.77
23619;BME280;18207;32.078;34.818;2023-04-10T03:55:11;99967.03;;;29.51;32.87
23619;BME280;18207;32.078;34.818;2023-04-10T03:57:41;99965.41;;;29.50;32.53
23619;BME280;18207;32.078;34.818;2023-04-10T04:00:12;99960.97;;;29.49;32.63
23619;BME280;18207;32.078;34.818;2023-04-10T04:02:44;99972.28;;;29.49;32.78
23619;BME280;18207;32.078;34.818;2023-04-10T04:05:15;99984.03;;;29.48;32.71
23619;BME280;18207;32.078;34.818;2023-04-10T04:07:46;99978.81;;;29.46;32.43
23619;BME280;18207;32.078;34.818;2023-04-10T04:10:16;99977.97;;;29.46;32.92
23619;BME280;18207;32.078;34.818;2023-04-10T04:12:46;99975.56;;;29.44;32.94
23619;BME280;18207;32.078;34.818;2023-04-10T04:15:16;99987.69;;;29.45;32.72
23619;BME280;18207;32.078;34.818;2023-04-10T04:17:50;99977.59;;;29.44;32.74
23619;BME280;18207;32.078;34.818;2023-04-10T04:20:20;99983.25;;;29.44;32.54
23619;BME280;18207;32.078;34.818;2023-04-10T04:22:49;99985.28;;;29.43;32.65
23619;BME280;18207;32.078;34.818;2023-04-10T04:25:19;99982.44;;;29.43;32.84
23619;BME280;18207;32.078;34.818;2023-04-10T04:27:49;99977.59;;;29.44;32.67
23619;BME280;18207;32.078;34.818;2023-04-10T04:30:19;99984.06;;;29.44;32.78
23619;BME280;18207;32.078;34.818;2023-04-10T04:32:51;99987.69;;;29.45;33.05
23619;BME280;18207;32.078;34.818;2023-04-10T04:35:21;99991.34;;;29.45;32.99
23619;BME280;18207;32.078;34.818;2023-04-10T04:37:52;99994.53;;;29.47;32.79
23619;BME280;18207;32.078;34.818;2023-04-10T04:40:22;99998.19;;;29.48;32.89
23619;BME280;18207;32.078;34.818;2023-04-10T04:42:51;100006.28;;;29.49;33.10
23619;BME280;18207;32.078;34.818;2023-04-10T04:45:22;100008.72;;;29.51;33.01
23619;BME280;18207;32.078;34.818;2023-04-10T04:47:54;100008.28;;;29.52;33.49
23619;BME280;18207;32.078;34.818;2023-04-10T04:50:24;100004.63;;;29.55;33.29
23619;BME280;18207;32.078;34.818;2023-04-10T04:52:54;100014.75;;;29.56;33.26
23619;BME280;18207;32.078;34.818;2023-04-10T04:55:24;100011.88;;;29.59;33.46
23619;BME280;18207;32.078;34.818;2023-04-10T04:57:54;100008.63;;;29.61;33.68
23619;BME280;18207;32.078;34.818;2023-04-10T05:00:25;100004.97;;;29.64;34.02
23619;BME280;18207;32.078;34.818;2023-04-10T05:02:56;100002.13;;;29.67;33.96
23619;BME280;18207;32.078;34.818;2023-04-10T05:05:27;99998.47;;;29.70;33.86
23619;BME280;18207;32.078;34.818;2023-04-10T05:07:57;99993.56;;;29.74;34.24
23619;BME280;18207;32.078;34.818;2023-04-10T05:10:27;99996.75;;;29.80;34.42
23619;BME280;18207;32.078;34.818;2023-04-10T05:12:57;99983.38;;;29.84;34.20
23619;BME280;18207;32.078;34.818;2023-04-10T05:15:27;99985.75;;;29.89;34.70
23619;BME280;18207;32.078;34.818;2023-04-10T05:17:59;99993.84;;;29.94;34.57
23619;BME280;18207;32.078;34.818;2023-04-10T05:20:30;99992.59;;;29.98;34.38
23619;BME280;18207;32.078;34.818;2023-04-10T05:23:00;99995.78;;;30.04;34.51
23619;BME280;18207;32.078;34.818;2023-04-10T05:25:30;99998.16;;;30.09;34.79
23619;BME280;18207;32.078;34.818;2023-04-10T05:28:00;99997.72;;;30.14;34.73
23619;BME280;18207;32.078;34.818;2023-04-10T05:30:30;100000.09;;;30.19;34.37
23619;BME280;18207;32.078;34.818;2023-04-10T05:33:03;100002.50;;;30.24;34.71
23619;BME280;18207;32.078;34.818;2023-04-10T05:35:33;99996.38;;;30.29;34.93
23619;BME280;18207;32.078;34.818;2023-04-10T05:38:03;99995.09;;;30.33;34.58
23619;BME280;18207;32.078;34.818;2023-04-10T05:40:34;99998.28;;;30.39;34.52
23619;BME280;18207;32.078;34.818;2023-04-10T05:43:03;100002.69;;;30.43;35.11
23619;BME280;18207;32.078;34.818;2023-04-10T05:45:33;100009.16;;;30.47;34.65
23619;BME280;18207;32.078;34.818;2023-04-10T05:48:06;100009.53;;;30.52;34.61
23619;BME280;18207;32.078;34.818;2023-04-10T05:50:36;100007.44;;;30.56;34.38
23619;BME280;18207;32.078;34.818;2023-04-10T05:53:11;99995.28;;;30.59;34.68
23619;BME280;18207;32.078;34.818;2023-04-10T05:55:42;99991.97;;;30.64;34.42
23619;BME280;18207;32.078;34.818;2023-04-10T05:58:12;99996.41;;;30.69;34.31
23619;BME280;18207;32.078;34.818;2023-04-10T06:00:42;99996.72;;;30.74;34.52
23619;BME280;18207;32.078;34.818;2023-04-10T06:03:14;99999.09;;;30.79;34.83
23619;BME280;18207;32.078;34.818;2023-04-10T06:05:44;99994.19;;;30.83;34.59
23619;BME280;18207;32.078;34.818;2023-04-10T06:08:14;99981.56;;;30.88;34.43
23619;BME280;18207;32.078;34.818;2023-04-10T06:10:46;99988.38;;;30.94;34.80
23619;BME280;18207;32.078;34.818;2023-04-10T06:13:16;99978.59;;;30.98;34.62
23619;BME280;18207;32.078;34.818;2023-04-10T06:15:46;99981.81;;;31.04;34.67
23619;BME280;18207;32.078;34.818;2023-04-10T06:18:18;99982.13;;;31.09;34.83
23619;BME280;18207;32.078;34.818;2023-04-10T06:20:48;99985.31;;;31.15;34.38
23619;BME280;18207;32.078;34.818;2023-04-10T06:23:18;99986.44;;;31.21;34.76
23619;BME280;18207;32.078;34.818;2023-04-10T06:25:49;99990.84;;;31.25;34.42
23619;BME280;18207;32.078;34.818;2023-04-10T06:28:18;99988.31;;;31.31;34.44
23619;BME280;18207;32.078;34.818;2023-04-10T06:30:49;99976.50;;;31.35;34.89
23619;BME280;18207;32.078;34.818;2023-04-10T06:33:21;99984.13;;;31.42;34.77
23619;BME280;18207;32.078;34.818;2023-04-10T06:35:52;99978.78;;;31.47;34.62
23619;BME280;18207;32.078;34.818;2023-04-10T06:38:24;99979.50;;;31.51;34.76
23619;BME280;18207;32.078;34.818;2023-04-10T06:40:54;99981.47;;;31.58;34.90
23619;BME280;18207;32.078;34.818;2023-04-10T06:43:25;99980.97;;;31.63;34.94
23619;BME280;18207;32.078;34.818;2023-04-10T06:45:56;99993.47;;;31.69;34.22
23619;BME280;18207;32.078;34.818;2023-04-10T06:48:28;99986.50;;;31.73;34.74
23619;BME280;18207;32.078;34.818;2023-04-10T06:50:58;99988.06;;;31.78;34.74
23619;BME280;18207;32.078;34.818;2023-04-10T06:53:28;99984.72;;;31.83;34.50
23619;BME280;18207;32.078;34.818;2023-04-10T06:55:59;99999.69;;;31.87;34.07
23619;BME280;18207;32.078;34.818;2023-04-10T06:58:30;100007.38;;;31.90;34.43
23619;BME280;18207;32.078;34.818;2023-04-10T07:01:00;100034.13;;;31.92;33.87
23619;BME280;18207;32.078;34.818;2023-04-10T07:03:33;100057.66;;;31.93;33.92
23619;BME280;18207;32.078;34.818;2023-04-10T07:06:04;100072.69;;;31.93;34.32
23619;BME280;18207;32.078;34.818;2023-04-10T07:08:35;100082.00;;;31.94;34.21
23619;BME280;18207;32.078;34.818;2023-04-10T07:11:06;100069.03;;;31.93;33.89
23619;BME280;18207;32.078;34.818;2023-04-10T07:13:36;100052.78;;;31.93;34.06
23619;BME280;18207;32.078;34.818;2023-04-10T07:16:08;100045.50;;;31.92;34.45
23619;BME280;18207;32.078;34.818;2023-04-10T07:18:41;100036.53;;;31.94;34.05
23619;BME280;18207;32.078;34.818;2023-04-10T07:21:13;100023.50;;;31.96;34.67
23619;BME280;18207;32.078;34.818;2023-04-10T07:23:44;100019.00;;;31.99;34.37
23619;BME280;18207;32.078;34.818;2023-04-10T07:26:14;100007.56;;;32.02;34.40
23619;BME280;18207;32.078;34.818;2023-04-10T07:28:44;100001.81;;;32.06;34.52
23619;BME280;18207;32.078;34.818;2023-04-10T07:31:14;99994.06;;;32.10;35.08
23619;BME280;18207;32.078;34.818;2023-04-10T07:33:46;99999.25;;;32.15;34.48
23619;BME280;18207;32.078;34.818;2023-04-10T07:36:17;99993.50;;;32.18;34.90
23619;BME280;18207;32.078;34.818;2023-04-10T07:38:47;99978.78;;;32.23;35.07
23619;BME280;18207;32.078;34.818;2023-04-10T07:41:16;100000.25;;;32.27;34.88
23619;BME280;18207;32.078;34.818;2023-04-10T07:43:47;99990.41;;;32.32;34.83
23619;BME280;18207;32.078;34.818;2023-04-10T07:46:17;99990.72;;;32.37;34.36
23619;BME280;18207;32.078;34.818;2023-04-10T07:48:50;99985.75;;;32.41;34.20
23619;BME280;18207;32.078;34.818;2023-04-10T07:51:22;99981.59;;;32.46;34.22
23619;BME280;18207;32.078;34.818;2023-04-10T07:53:53;99996.94;;;32.52;34.68
23619;BME280;18207;32.078;34.818;2023-04-10T07:56:23;99990.41;;;32.55;34.20
23619;BME280;18207;32.078;34.818;2023-04-10T07:58:52;100001.28;;;32.60;34.50
23619;BME280;18207;32.078;34.818;2023-04-10T08:01:23;100005.69;;;32.64;34.31
23619;BME280;18207;32.078;34.818;2023-04-10T08:03:56;100013.72;;;32.69;34.41
23619;BME280;18207;32.078;34.818;2023-04-10T08:06:28;100004.28;;;32.72;34.27
23619;BME280;18207;32.078;34.818;2023-04-10T08:08:58;100016.44;;;32.76;34.24
23619;BME280;18207;32.078;34.818;2023-04-10T08:11:31;100017.97;;;32.81;34.27
23619;BME280;18207;32.078;34.818;2023-04-10T08:14:05;100024.03;;;32.83;33.95
23619;BME280;18207;32.078;34.818;2023-04-10T08:16:35;100019.88;;;32.87;33.98
23619;BME280;18207;32.078;34.818;2023-04-10T08:19:08;100030.38;;;32.90;33.61
23619;BME280;18207;32.078;34.818;2023-04-10T08:21:38;100027.09;;;32.92;33.54
23619;BME280;18207;32.078;34.818;2023-04-10T08:24:08;100031.56;;;32.93;33.86
23619;BME280;18207;32.078;34.818;2023-04-10T08:26:39;100031.56;;;32.93;34.18
23619;BME280;18207;32.078;34.818;2023-04-10T08:29:08;100017.75;;;32.91;34.13
23619;BME280;18207;32.078;34.818;2023-04-10T08:31:38;100001.09;;;32.90;33.55
23619;BME280;18207;32.078;34.818;2023-04-10T08:34:10;99982.03;;;32.87;34.09
23619;BME280;18207;32.078;34.818;2023-04-10T08:36:40;99987.03;;;32.83;33.38
23619;BME280;18207;32.078;34.818;2023-04-10T08:39:10;99976.50;;;32.80;34.13
23619;BME280;18207;32.078;34.818;2023-04-10T08:41:41;99981.44;;;32.76;33.86
23619;BME280;18207;32.078;34.818;2023-04-10T08:44:11;100001.03;;;32.74;34.08
23619;BME280;18207;32.078;34.818;2023-04-10T08:46:43;100001.91;;;32.71;33.88
23619;BME280;18207;32.078;34.818;2023-04-10T08:49:30;100003.59;;;32.68;34.08
23619;BME280;18207;32.078;34.818;2023-04-10T08:52:05;99991.81;;;32.66;33.69
23619;BME280;18207;32.078;34.818;2023-04-10T08:54:38;99997.50;;;32.66;33.92
23619;BME280;18207;32.078;34.818;2023-04-10T08:57:14;99989.75;;;32.67;34.47
23619;BME280;18207;32.078;34.818;2023-04-10T08:59:48;99987.28;;;32.69;34.00
23619;BME280;18207;32.078;34.818;2023-04-10T09:02:20;99975.03;;;32.72;34.14
23619;BME280;18207;32.078;34.818;2023-04-10T09:04:54;99970.06;;;32.76;34.16
23619;BME280;18207;32.078;34.818;2023-04-10T09:07:27;99969.19;;;32.79;34.00
23619;BME280;18207;32.078;34.818;2023-04-10T09:09:57;99968.34;;;32.82;34.47
23619;BME280;18207;32.078;34.818;2023-04-10T09:12:27;99957.66;;;32.86;34.37
23619;BME280;18207;32.078;34.818;2023-04-10T09:14:58;99949.84;;;32.90;33.60
23619;BME280;18207;32.078;34.818;2023-04-10T09:17:28;99937.16;;;32.94;34.13
23619;BME280;18207;32.078;34.818;2023-04-10T09:20:00;99943.59;;;32.98;33.75
23619;BME280;18207;32.078;34.818;2023-04-10T09:22:33;99919.47;;;33.03;34.13
23619;BME280;18207;32.078;34.818;2023-04-10T09:25:05;99918.56;;;33.06;33.88
23619;BME280;18207;32.078;34.818;2023-04-10T09:27:36;99901.84;;;33.08;33.98
23619;BME280;18207;32.078;34.818;2023-04-10T09:30:08;99896.94;;;33.12;33.55
23619;BME280;18207;32.078;34.818;2023-04-10T09:32:40;99888.75;;;33.14;33.51
23619;BME280;18207;32.078;34.818;2023-04-10T09:35:14;99870.75;;;33.16;33.30
23619;BME280;18207;32.078;34.818;2023-04-10T09:37:45;99867.03;;;33.19;33.22
23619;BME280;18207;32.078;34.818;2023-04-10T09:40:23;99854.75;;;33.22;33.54
23619;BME280;18207;32.078;34.818;2023-04-10T09:42:55;99853.50;;;33.23;33.44
23619;BME280;18207;32.078;34.818;2023-04-10T09:45:25;99846.13;;;33.26;33.54
23619;BME280;18207;32.078;34.818;2023-04-10T09:48:06;99847.28;;;33.28;33.46
23619;BME280;18207;32.078;34.818;2023-04-10T09:50:39;99851.28;;;33.31;33.08
23619;BME280;18207;32.078;34.818;2023-04-10T09:53:11;99849.25;;;33.31;32.54
23619;BME280;18207;32.078;34.818;2023-04-10T09:55:42;99843.44;;;33.35;32.64
23619;BME280;18207;32.078;34.818;2023-04-10T09:58:12;99845.84;;;33.36;32.72
23619;BME280;18207;32.078;34.818;2023-04-10T10:00:45;99844.97;;;33.39;32.53
23619;BME280;18207;32.078;34.818;2023-04-10T10:03:17;99842.81;;;33.43;32.37
23619;BME280;18207;32.078;34.818;2023-04-10T10:05:51;99845.59;;;33.47;32.84
23619;BME280;18207;32.078;34.818;2023-04-10T10:08:21;99840.59;;;33.51;32.78
23619;BME280;18207;32.078;34.818;2023-04-10T10:10:54;99848.16;;;33.57;32.72
23619;BME280;18207;32.078;34.818;2023-04-10T10:13:33;99836.28;;;33.62;32.02
23619;BME280;18207;32.078;34.818;2023-04-10T10:16:13;99845.88;;;33.68;31.95
23619;BME280;18207;32.078;34.818;2023-04-10T10:18:51;99835.19;;;33.72;31.73
23619;BME280;18207;32.078;34.818;2023-04-10T10:21:27;99833.84;;;33.77;31.61
23619;BME280;18207;32.078;34.818;2023-04-10T10:24:02;99825.19;;;33.80;31.53
23619;BME280;18207;32.078;34.818;2023-04-10T10:26:39;99838.13;;;33.85;31.77
23619;BME280;18207;32.078;34.818;2023-04-10T10:29:13;99829.91;;;33.87;31.64
23619;BME280;18207;32.078;34.818;2023-04-10T10:31:46;99833.09;;;33.89;31.29
23619;BME280;18207;32.078;34.818;2023-04-10T10:34:17;99843.25;;;33.90;31.33
23619;BME280;18207;32.078;34.818;2023-04-10T10:36:48;99852.63;;;33.90;31.84
23619;BME280;18207;32.078;34.818;2023-04-10T10:39:30;99871.78;;;33.90;31.25
23619;BME280;18207;32.078;34.818;2023-04-10T10:42:10;99874.28;;;33.88;31.50
23619;BME280;18207;32.078;34.818;2023-04-10T10:44:49;99865.38;;;33.86;31.12
23619;BME280;18207;32.078;34.818;2023-04-10T10:47:28;99833.28;;;33.82;31.71
23619;BME280;18207;32.078;34.818;2023-04-10T10:50:01;99835.00;;;33.79;31.17
23619;BME280;18207;32.078;34.818;2023-04-10T10:52:41;99842.75;;;33.79;31.72
23619;BME280;18207;32.078;34.818;2023-04-10T10:55:31;99843.19;;;33.77;31.10
23619;BME280;18207;32.078;34.818;2023-04-10T10:58:07;99841.69;;;33.73;31.32
23619;BME280;18207;32.078;34.818;2023-04-10T11:01:06;99829.13;;;33.70;31.10
23619;BME280;18207;32.078;34.818;2023-04-10T11:03:37;99822.28;;;33.68;31.51
23619;BME280;18207;32.078;34.818;2023-04-10T11:06:08;99834.13;;;33.66;31.07
23619;BME280;18207;32.078;34.818;2023-04-10T11:08:43;99848.81;;;33.65;30.88
23619;BME280;18207;32.078;34.818;2023-04-10T11:11:16;99857.47;;;33.61;31.03
23619;BME280;18207;32.078;34.818;2023-04-10T11:14:12;99863.25;;;33.58;30.97
23619;BME280;18207;32.078;34.818;2023-04-10T11:16:47;99840.16;;;33.52;31.33
23619;BME280;18207;32.078;34.818;2023-04-10T11:19:17;99849.59;;;33.49;30.82
23619;BME280;18207;32.078;34.818;2023-04-10T11:22:04;99831.34;;;33.47;30.53
23619;BME280;18207;32.078;34.818;2023-04-10T11:24:58;99791.88;;;33.45;30.41
23619;BME280;18207;32.078;34.818;2023-04-10T11:27:44;99790.28;;;33.44;30.52
23619;BME280;18207;32.078;34.818;2023-04-10T11:30:34;99783.31;;;33.45;30.74
23619;BME280;18207;32.078;34.818;2023-04-10T11:33:05;99761.34;;;33.46;30.93
23619;BME280;18207;32.078;34.818;2023-04-10T11:35:35;99741.75;;;33.48;30.44
23619;BME280;18207;32.078;34.818;2023-04-10T11:38:13;99739.13;;;33.53;31.11
23619;BME280;18207;32.078;34.818;2023-04-10T11:41:00;99758.19;;;33.56;30.73
23619;BME280;18207;32.078;34.818;2023-04-10T11:43:32;99760.97;;;33.60;30.58
23619;BME280;18207;32.078;34.818;2023-04-10T11:46:05;99736.84;;;33.64;30.94
23619;BME280;18207;32.078;34.818;2023-04-10T11:48:36;99735.94;;;33.67;30.44
23619;BME280;18207;32.078;34.818;2023-04-10T11:51:12;99722.72;;;33.73;30.95
23619;BME280;18207;32.078;34.818;2023-04-10T11:53:42;99712.03;;;33.77;30.32
23619;BME280;18207;32.078;34.818;2023-04-10T11:56:19;99707.38;;;33.83;30.87
23619;BME280;18207;32.078;34.818;2023-04-10T11:58:50;99706.03;;;33.88;30.89
23619;BME280;18207;32.078;34.818;2023-04-10T12:01:22;99688.38;;;33.93;30.12
23619;BME280;18207;32.078;34.818;2023-04-10T12:03:52;99680.53;;;33.97;30.13
23619;BME280;18207;32.078;34.818;2023-04-10T12:06:23;99662.03;;;34.01;30.06
23619;BME280;18207;32.078;34.818;2023-04-10T12:08:54;99655.41;;;34.04;30.52
23619;BME280;18207;32.078;34.818;2023-04-10T12:11:27;99638.56;;;34.09;30.41
23619;BME280;18207;32.078;34.818;2023-04-10T12:13:57;99630.72;;;34.13;29.76
23619;BME280;18207;32.078;34.818;2023-04-10T12:16:28;99611.41;;;34.17;29.79
23619;BME280;18207;32.078;34.818;2023-04-10T12:18:59;99607.66;;;34.20;29.63
23619;BME280;18207;32.078;34.818;2023-04-10T12:21:29;99609.97;;;34.25;29.55
23619;BME280;18207;32.078;34.818;2023-04-10T12:23:59;99597.59;;;34.28;29.62
23619;BME280;18207;32.078;34.818;2023-04-10T12:26:31;99610.50;;;34.33;29.50
23619;BME280;18207;32.078;34.818;2023-04-10T12:29:01;99618.63;;;34.34;29.34
23619;BME280;18207;32.078;34.818;2023-04-10T12:31:35;99627.53;;;34.36;29.62
23619;BME280;18207;32.078;34.818;2023-04-10T12:34:05;99627.06;;;34.38;29.73
23619;BME280;18207;32.078;34.818;2023-04-10T12:36:38;99640.09;;;34.39;29.80
23619;BME280;18207;32.078;34.818;2023-04-10T12:39:23;99645.34;;;34.40;29.69
23619;BME280;18207;32.078;34.818;2023-04-10T12:42:10;99649.00;;;34.41;29.44
23619;BME280;18207;32.078;34.818;2023-04-10T12:44:54;99643.63;;;34.43;29.07
23619;BME280;18207;32.078;34.818;2023-04-10T12:47:27;99632.66;;;34.41;28.93
23619;BME280;18207;32.078;34.818;2023-04-10T12:50:08;99635.53;;;34.41;28.97
23619;BME280;18207;32.078;34.818;2023-04-10T12:52:42;99631.88;;;34.41;29.44
23619;BME280;18207;32.078;34.818;2023-04-10T12:55:15;99631.53;;;34.39;28.81
23619;BME280;18207;32.078;34.818;2023-04-10T12:57:47;99638.50;;;34.38;28.75
23619;BME280;18207;32.078;34.818;2023-04-10T13:00:19;99649.56;;;34.36;29.08
23619;BME280;18207;32.078;34.818;2023-04-10T13:02:50;99673.28;;;34.33;28.96
23619;BME280;18207;32.078;34.818;2023-04-10T13:05:20;99682.78;;;34.30;28.99
23619;BME280;18207;32.078;34.818;2023-04-10T13:07:52;99668.94;;;34.28;29.01
23619;BME280;18207;32.078;34.818;2023-04-10T13:10:22;99627.88;;;34.26;28.82
23619;BME280;18207;32.078;34.818;2023-04-10T13:13:06;99625.00;;;34.26;28.86
23619;BME280;18207;32.078;34.818;2023-04-10T13:15:39;99644.63;;;34.24;29.17